sensor_id;sensor_type;location;lat;lon;timestamp;noise_LAeq;noise_LA_min;noise_LA_max;noise_LA01;noise_LA95
4048;Laerm;2038;51.728;6.674;2023-02-13T00:02:20;40.84;38.37;42.93;;
4048;Laerm;2038;51.728;6.674;2023-02-13T00:04:47;42.76;38.21;59.67;;
4048;Laerm;2038;51.728;6.674;2023-02-13T00:07:13;40.97;37.32;42.82;;
4048;Laerm;2038;51.728;6.674;2023-02-13T00:09:40;40.95;37.88;42.71;;
4048;Laerm;2038;51.728;6.674;2023-02-13T00:12:07;41.06;37.88;43.19;;
4048;Laerm;2038;51.728;6.674;2023-02-13T00:14:36;41.22;37.70;49.33;;
4048;Laerm;2038;51.728;6.674;2023-02-13T00:17:03;40.94;38.37;42.82;;
4048;Laerm;2038;51.728;6.674;2023-02-13T00:19:30;40.95;38.21;42.98;;
4048;Laerm;2038;51.728;6.674;2023-02-13T00:21:56;40.96;38.21;42.76;;
4048;Laerm;2038;51.728;6.674;2023-02-13T00:24:22;41.05;38.21;43.19;;
4048;Laerm;2038;51.728;6.674;2023-02-13T00:26:49;41.27;37.88;47.74;;
4048;Laerm;2038;51.728;6.674;2023-02-13T00:29:15;41.03;38.21;42.93;;
4048;Laerm;2038;51.728;6.674;2023-02-13T00:31:41;41.12;38.21;43.09;;
4048;Laerm;2038;51.728;6.674;2023-02-13T00:34:08;41.06;38.37;43.19;;
4048;Laerm;2038;51.728;6.674;2023-02-13T00:36:34;41.00;38.52;42.82;;
4048;Laerm;2038;51.728;6.674;2023-02-13T00:39:00;41.09;38.05;43.04;;
4048;Laerm;2038;51.728;6.674;2023-02-13T00:41:26;41.07;38.05;43.14;;
4048;Laerm;2038;51.728;6.674;2023-02-13T00:43:53;41.11;38.05;43.04;;
4048;Laerm;2038;51.728;6.674;2023-02-13T00:46:19;41.07;38.05;43.04;;
4048;Laerm;2038;51.728;6.674;2023-02-13T00:48:45;41.14;38.21;43.19;;
4048;Laerm;2038;51.728;6.674;2023-02-13T00:51:12;45.42;38.67;63.03;;
4048;Laerm;2038;51.728;6.674;2023-02-13T00:53:39;41.05;38.21;42.98;;
4048;Laerm;2038;51.728;6.674;2023-02-13T00:56:06;41.05;38.05;43.04;;
4048;Laerm;2038;51.728;6.674;2023-02-13T00:58:33;40.85;38.37;42.71;;
4048;Laerm;2038;51.728;6.674;2023-02-13T01:00:59;41.14;38.67;43.14;;
4048;Laerm;2038;51.728;6.674;2023-02-13T01:03:26;41.19;38.21;43.24;;
4048;Laerm;2038;51.728;6.674;2023-02-13T01:05:52;41.06;37.88;43.14;;
4048;Laerm;2038;51.728;6.674;2023-02-13T01:08:20;41.05;37.70;43.29;;
4048;Laerm;2038;51.728;6.674;2023-02-13T01:10:48;43.36;38.05;57.53;;
4048;Laerm;2038;51.728;6.674;2023-02-13T01:13:16;41.09;38.21;43.14;;
4048;Laerm;2038;51.728;6.674;2023-02-13T01:15:46;40.95;38.21;42.82;;
4048;Laerm;2038;51.728;6.674;2023-02-13T01:18:15;40.94;38.37;42.76;;
4048;Laerm;2038;51.728;6.674;2023-02-13T01:20:43;40.98;37.52;43.04;;
4048;Laerm;2038;51.728;6.674;2023-02-13T01:23:11;40.90;38.21;42.71;;
4048;Laerm;2038;51.728;6.674;2023-02-13T01:25:41;46.84;38.21;62.78;;
4048;Laerm;2038;51.728;6.674;2023-02-13T01:28:08;40.98;38.37;43.09;;
4048;Laerm;2038;51.728;6.674;2023-02-13T01:30:34;41.21;38.81;43.09;;
4048;Laerm;2038;51.728;6.674;2023-02-13T01:33:01;41.13;38.37;43.24;;
4048;Laerm;2038;51.728;6.674;2023-02-13T01:35:27;46.15;38.52;64.54;;
4048;Laerm;2038;51.728;6.674;2023-02-13T01:37:53;41.06;38.21;43.34;;
4048;Laerm;2038;51.728;6.674;2023-02-13T01:40:19;40.94;38.37;42.76;;
4048;Laerm;2038;51.728;6.674;2023-02-13T01:42:45;41.03;38.37;43.04;;
4048;Laerm;2038;51.728;6.674;2023-02-13T01:45:28;40.96;37.88;42.93;;
4048;Laerm;2038;51.728;6.674;2023-02-13T01:48:05;41.06;38.60;43.19;;
4048;Laerm;2038;51.728;6.674;2023-02-13T01:50:50;41.93;38.05;56.62;;
4048;Laerm;2038;51.728;6.674;2023-02-13T01:53:39;42.10;37.88;55.16;;
4048;Laerm;2038;51.728;6.674;2023-02-13T01:56:26;41.17;38.67;43.09;;
4048;Laerm;2038;51.728;6.674;2023-02-13T01:59:00;41.15;38.21;42.98;;
4048;Laerm;2038;51.728;6.674;2023-02-13T02:01:29;41.16;38.37;42.93;;
4048;Laerm;2038;51.728;6.674;2023-02-13T02:04:19;41.52;37.88;52.62;;
4048;Laerm;2038;51.728;6.674;2023-02-13T02:06:57;41.07;38.21;43.29;;
4048;Laerm;2038;51.728;6.674;2023-02-13T02:09:29;41.00;38.05;43.04;;
4048;Laerm;2038;51.728;6.674;2023-02-13T02:12:16;41.12;38.37;42.98;;
4048;Laerm;2038;51.728;6.674;2023-02-13T02:14:44;45.06;38.21;60.59;;
4048;Laerm;2038;51.728;6.674;2023-02-13T02:17:11;41.22;37.70;43.19;;
4048;Laerm;2038;51.728;6.674;2023-02-13T02:23:15;41.18;37.32;43.24;;
4048;Laerm;2038;51.728;6.674;2023-02-13T02:26:08;41.23;38.37;42.93;;
4048;Laerm;2038;51.728;6.674;2023-02-13T02:40:50;41.11;37.32;43.09;;
4048;Laerm;2038;51.728;6.674;2023-02-13T02:46:16;40.93;38.67;42.88;;
4048;Laerm;2038;51.728;6.674;2023-02-13T02:49:03;41.11;38.21;43.04;;
4048;Laerm;2038;51.728;6.674;2023-02-13T02:52:05;41.57;38.81;52.44;;
4048;Laerm;2038;51.728;6.674;2023-02-13T02:54:48;41.20;38.37;42.88;;
4048;Laerm;2038;51.728;6.674;2023-02-13T02:57:47;42.64;38.21;56.63;;
4048;Laerm;2038;51.728;6.674;2023-02-13T03:00:37;41.26;38.21;43.24;;
4048;Laerm;2038;51.728;6.674;2023-02-13T03:03:26;41.31;38.81;43.09;;
4048;Laerm;2038;51.728;6.674;2023-02-13T03:06:20;41.13;38.60;43.04;;
4048;Laerm;2038;51.728;6.674;2023-02-13T03:08:56;41.32;38.05;43.14;;
4048;Laerm;2038;51.728;6.674;2023-02-13T03:11:48;41.31;38.21;43.04;;
4048;Laerm;2038;51.728;6.674;2023-02-13T03:14:34;42.14;38.67;51.15;;
4048;Laerm;2038;51.728;6.674;2023-02-13T03:17:02;42.13;38.60;52.21;;
4048;Laerm;2038;51.728;6.674;2023-02-13T03:23:13;43.07;38.52;57.98;;
4048;Laerm;2038;51.728;6.674;2023-02-13T03:26:28;41.19;38.37;44.73;;
4048;Laerm;2038;51.728;6.674;2023-02-13T03:32:29;43.56;38.52;57.16;;
4048;Laerm;2038;51.728;6.674;2023-02-13T03:35:41;41.87;38.21;52.47;;
4048;Laerm;2038;51.728;6.674;2023-02-13T03:41:30;45.67;38.52;58.43;;
4048;Laerm;2038;51.728;6.674;2023-02-13T03:44:31;41.22;38.05;43.09;;
4048;Laerm;2038;51.728;6.674;2023-02-13T03:47:02;41.09;38.37;42.93;;
4048;Laerm;2038;51.728;6.674;2023-02-13T03:49:56;42.45;38.52;55.38;;
4048;Laerm;2038;51.728;6.674;2023-02-13T03:53:01;41.80;38.21;52.56;;
4048;Laerm;2038;51.728;6.674;2023-02-13T03:55:37;41.13;38.21;42.93;;
4048;Laerm;2038;51.728;6.674;2023-02-13T03:58:40;42.64;38.21;56.34;;
4048;Laerm;2038;51.728;6.674;2023-02-13T04:01:31;49.07;38.52;64.04;;
4048;Laerm;2038;51.728;6.674;2023-02-13T04:04:16;42.99;38.52;54.74;;
4048;Laerm;2038;51.728;6.674;2023-02-13T04:06:56;43.69;38.52;60.35;;
4048;Laerm;2038;51.728;6.674;2023-02-13T04:09:28;42.07;38.21;54.16;;
4048;Laerm;2038;51.728;6.674;2023-02-13T04:15:25;44.58;38.52;60.44;;
4048;Laerm;2038;51.728;6.674;2023-02-13T04:18:02;42.88;37.88;55.90;;
4048;Laerm;2038;51.728;6.674;2023-02-13T04:20:31;41.89;38.37;52.63;;
4048;Laerm;2038;51.728;6.674;2023-02-13T04:23:06;47.33;38.21;63.15;;
4048;Laerm;2038;51.728;6.674;2023-02-13T04:25:35;41.65;37.32;55.06;;
4048;Laerm;2038;51.728;6.674;2023-02-13T04:28:02;44.83;38.21;59.15;;
4048;Laerm;2038;51.728;6.674;2023-02-13T04:30:29;42.58;38.05;55.13;;
4048;Laerm;2038;51.728;6.674;2023-02-13T04:32:55;46.73;38.05;64.68;;
4048;Laerm;2038;51.728;6.674;2023-02-13T04:35:21;42.72;38.21;54.23;;
4048;Laerm;2038;51.728;6.674;2023-02-13T04:37:47;46.32;38.52;62.89;;
4048;Laerm;2038;51.728;6.674;2023-02-13T04:40:13;49.08;38.95;64.44;;
4048;Laerm;2038;51.728;6.674;2023-02-13T04:42:40;42.90;38.52;54.76;;
4048;Laerm;2038;51.728;6.674;2023-02-13T04:45:06;46.39;38.37;64.95;;
4048;Laerm;2038;51.728;6.674;2023-02-13T04:47:33;46.99;38.05;66.56;;
4048;Laerm;2038;51.728;6.674;2023-02-13T04:49:59;48.09;38.67;61.47;;
4048;Laerm;2038;51.728;6.674;2023-02-13T04:52:25;43.54;38.05;57.04;;
4048;Laerm;2038;51.728;6.674;2023-02-13T04:54:51;43.73;38.67;57.55;;
4048;Laerm;2038;51.728;6.674;2023-02-13T04:57:18;43.46;38.37;59.37;;
4048;Laerm;2038;51.728;6.674;2023-02-13T04:59:45;44.13;38.67;57.93;;
4048;Laerm;2038;51.728;6.674;2023-02-13T05:02:11;46.79;38.21;61.08;;
4048;Laerm;2038;51.728;6.674;2023-02-13T05:04:37;44.44;38.05;58.13;;
4048;Laerm;2038;51.728;6.674;2023-02-13T05:07:03;47.66;38.05;63.05;;
4048;Laerm;2038;51.728;6.674;2023-02-13T05:09:29;43.98;37.88;58.61;;
4048;Laerm;2038;51.728;6.674;2023-02-13T05:11:56;44.04;37.35;55.25;;
4048;Laerm;2038;51.728;6.674;2023-02-13T05:14:22;42.51;38.52;50.96;;
4048;Laerm;2038;51.728;6.674;2023-02-13T05:16:48;47.26;38.21;63.28;;
4048;Laerm;2038;51.728;6.674;2023-02-13T05:19:15;46.94;38.05;60.59;;
4048;Laerm;2038;51.728;6.674;2023-02-13T05:21:42;45.66;38.05;57.60;;
4048;Laerm;2038;51.728;6.674;2023-02-13T05:24:27;46.24;38.21;59.28;;
4048;Laerm;2038;51.728;6.674;2023-02-13T05:26:53;44.68;38.81;56.93;;
4048;Laerm;2038;51.728;6.674;2023-02-13T05:29:19;44.95;38.95;55.04;;
4048;Laerm;2038;51.728;6.674;2023-02-13T05:31:55;47.52;39.08;59.48;;
4048;Laerm;2038;51.728;6.674;2023-02-13T05:34:24;47.46;38.81;62.20;;
4048;Laerm;2038;51.728;6.674;2023-02-13T05:36:51;46.79;38.67;62.71;;
4048;Laerm;2038;51.728;6.674;2023-02-13T05:39:18;48.67;38.37;61.43;;
4048;Laerm;2038;51.728;6.674;2023-02-13T05:41:46;45.83;37.70;57.86;;
4048;Laerm;2038;51.728;6.674;2023-02-13T05:44:14;47.82;37.88;60.82;;
4048;Laerm;2038;51.728;6.674;2023-02-13T05:46:42;43.89;38.52;55.49;;
4048;Laerm;2038;51.728;6.674;2023-02-13T05:49:12;45.43;38.67;54.86;;
4048;Laerm;2038;51.728;6.674;2023-02-13T05:51:39;47.80;39.21;61.08;;
4048;Laerm;2038;51.728;6.674;2023-02-13T05:54:05;47.74;38.02;60.62;;
4048;Laerm;2038;51.728;6.674;2023-02-13T05:56:32;44.60;38.37;55.15;;
4048;Laerm;2038;51.728;6.674;2023-02-13T05:58:58;44.92;38.81;55.24;;
4048;Laerm;2038;51.728;6.674;2023-02-13T06:01:24;46.87;38.67;59.32;;
4048;Laerm;2038;51.728;6.674;2023-02-13T06:03:51;44.29;38.52;55.89;;
4048;Laerm;2038;51.728;6.674;2023-02-13T06:06:17;46.11;38.37;57.78;;
4048;Laerm;2038;51.728;6.674;2023-02-13T06:08:44;47.32;38.81;60.05;;
4048;Laerm;2038;51.728;6.674;2023-02-13T06:11:11;46.90;39.21;59.00;;
4048;Laerm;2038;51.728;6.674;2023-02-13T06:13:37;47.17;38.95;58.81;;
4048;Laerm;2038;51.728;6.674;2023-02-13T06:16:10;48.79;38.67;72.25;;
4048;Laerm;2038;51.728;6.674;2023-02-13T06:18:37;52.30;38.81;80.39;;
4048;Laerm;2038;51.728;6.674;2023-02-13T06:21:05;47.21;39.34;58.75;;
4048;Laerm;2038;51.728;6.674;2023-02-13T06:23:32;47.56;39.08;64.16;;
4048;Laerm;2038;51.728;6.674;2023-02-13T06:26:06;46.26;39.34;55.49;;
4048;Laerm;2038;51.728;6.674;2023-02-13T06:28:34;45.73;38.67;58.78;;
4048;Laerm;2038;51.728;6.674;2023-02-13T06:31:00;46.60;39.34;61.12;;
4048;Laerm;2038;51.728;6.674;2023-02-13T06:33:27;48.44;39.70;64.37;;
4048;Laerm;2038;51.728;6.674;2023-02-13T06:35:53;51.30;39.81;69.31;;
4048;Laerm;2038;51.728;6.674;2023-02-13T06:38:19;48.55;38.95;59.87;;
4048;Laerm;2038;51.728;6.674;2023-02-13T06:40:47;48.68;39.21;61.06;;
4048;Laerm;2038;51.728;6.674;2023-02-13T06:43:14;47.77;39.34;60.76;;
4048;Laerm;2038;51.728;6.674;2023-02-13T06:45:41;47.42;38.95;62.07;;
4048;Laerm;2038;51.728;6.674;2023-02-13T06:50:35;47.81;39.34;58.64;;
4048;Laerm;2038;51.728;6.674;2023-02-13T06:53:01;48.53;39.58;63.21;;
4048;Laerm;2038;51.728;6.674;2023-02-13T06:55:28;48.00;39.21;64.44;;
4048;Laerm;2038;51.728;6.674;2023-02-13T06:57:54;48.09;39.34;59.20;;
4048;Laerm;2038;51.728;6.674;2023-02-13T07:00:20;47.48;39.21;60.95;;
4048;Laerm;2038;51.728;6.674;2023-02-13T07:02:47;48.61;38.81;66.20;;
4048;Laerm;2038;51.728;6.674;2023-02-13T07:05:14;46.67;38.67;55.69;;
4048;Laerm;2038;51.728;6.674;2023-02-13T07:07:41;47.53;39.08;60.31;;
4048;Laerm;2038;51.728;6.674;2023-02-13T07:10:11;46.90;39.46;61.56;;
4048;Laerm;2038;51.728;6.674;2023-02-13T07:12:37;45.49;38.95;58.90;;
4048;Laerm;2038;51.728;6.674;2023-02-13T07:15:05;50.31;40.03;61.24;;
4048;Laerm;2038;51.728;6.674;2023-02-13T07:17:31;47.05;38.52;58.03;;
4048;Laerm;2038;51.728;6.674;2023-02-13T07:19:58;47.81;38.81;61.04;;
4048;Laerm;2038;51.728;6.674;2023-02-13T07:22:25;48.21;39.34;59.64;;
4048;Laerm;2038;51.728;6.674;2023-02-13T07:24:51;45.08;38.81;58.06;;
4048;Laerm;2038;51.728;6.674;2023-02-13T07:27:17;46.46;38.37;60.64;;
4048;Laerm;2038;51.728;6.674;2023-02-13T07:29:43;47.81;39.08;63.35;;
4048;Laerm;2038;51.728;6.674;2023-02-13T07:32:09;49.42;39.46;63.04;;
4048;Laerm;2038;51.728;6.674;2023-02-13T07:34:38;45.39;38.81;56.24;;
4048;Laerm;2038;51.728;6.674;2023-02-13T07:37:04;43.78;38.81;57.32;;
4048;Laerm;2038;51.728;6.674;2023-02-13T07:39:30;47.16;39.08;57.95;;
4048;Laerm;2038;51.728;6.674;2023-02-13T07:41:56;48.16;38.67;61.12;;
4048;Laerm;2038;51.728;6.674;2023-02-13T07:44:22;47.27;38.81;57.55;;
4048;Laerm;2038;51.728;6.674;2023-02-13T07:46:49;46.43;38.81;57.01;;
4048;Laerm;2038;51.728;6.674;2023-02-13T07:49:15;48.07;39.46;58.64;;
4048;Laerm;2038;51.728;6.674;2023-02-13T07:51:41;43.70;38.05;54.55;;
4048;Laerm;2038;51.728;6.674;2023-02-13T07:54:07;45.13;38.21;54.01;;
4048;Laerm;2038;51.728;6.674;2023-02-13T07:56:33;47.67;38.81;60.81;;
4048;Laerm;2038;51.728;6.674;2023-02-13T07:59:00;50.04;38.95;62.54;;
4048;Laerm;2038;51.728;6.674;2023-02-13T08:01:26;48.08;38.67;58.91;;
4048;Laerm;2038;51.728;6.674;2023-02-13T08:03:52;47.61;38.81;61.07;;
4048;Laerm;2038;51.728;6.674;2023-02-13T08:06:19;45.97;39.46;60.72;;
4048;Laerm;2038;51.728;6.674;2023-02-13T08:08:46;45.32;38.95;57.81;;
4048;Laerm;2038;51.728;6.674;2023-02-13T08:11:28;46.70;39.34;56.57;;
4048;Laerm;2038;51.728;6.674;2023-02-13T08:14:15;45.74;38.95;57.77;;
4048;Laerm;2038;51.728;6.674;2023-02-13T08:16:41;45.15;38.52;58.40;;
4048;Laerm;2038;51.728;6.674;2023-02-13T08:19:07;45.79;39.08;62.31;;
4048;Laerm;2038;51.728;6.674;2023-02-13T08:21:33;45.15;39.08;57.37;;
4048;Laerm;2038;51.728;6.674;2023-02-13T08:24:01;45.71;38.21;60.61;;
4048;Laerm;2038;51.728;6.674;2023-02-13T08:26:31;46.42;38.67;62.96;;
4048;Laerm;2038;51.728;6.674;2023-02-13T08:28:58;48.50;38.95;61.69;;
4048;Laerm;2038;51.728;6.674;2023-02-13T08:31:24;44.12;37.70;56.43;;
4048;Laerm;2038;51.728;6.674;2023-02-13T08:33:50;45.51;38.21;57.73;;
4048;Laerm;2038;51.728;6.674;2023-02-13T08:36:17;47.44;38.37;61.72;;
4048;Laerm;2038;51.728;6.674;2023-02-13T08:38:46;47.88;38.81;62.04;;
4048;Laerm;2038;51.728;6.674;2023-02-13T08:41:13;43.03;38.52;53.65;;
4048;Laerm;2038;51.728;6.674;2023-02-13T08:43:39;45.83;38.37;57.20;;
4048;Laerm;2038;51.728;6.674;2023-02-13T08:46:06;45.06;38.21;61.03;;
4048;Laerm;2038;51.728;6.674;2023-02-13T08:48:32;45.10;38.67;55.09;;
4048;Laerm;2038;51.728;6.674;2023-02-13T08:50:58;46.14;38.81;59.27;;
4048;Laerm;2038;51.728;6.674;2023-02-13T08:53:24;47.18;38.21;61.10;;
4048;Laerm;2038;51.728;6.674;2023-02-13T08:55:56;47.14;38.37;60.66;;
4048;Laerm;2038;51.728;6.674;2023-02-13T08:58:22;44.50;37.88;61.07;;
4048;Laerm;2038;51.728;6.674;2023-02-13T09:00:49;44.70;37.52;56.87;;
4048;Laerm;2038;51.728;6.674;2023-02-13T09:03:16;43.61;38.37;54.26;;
4048;Laerm;2038;51.728;6.674;2023-02-13T09:05:42;45.22;37.70;58.06;;
4048;Laerm;2038;51.728;6.674;2023-02-13T09:08:09;49.39;38.21;70.31;;
4048;Laerm;2038;51.728;6.674;2023-02-13T09:10:38;48.54;37.88;61.54;;
4048;Laerm;2038;51.728;6.674;2023-02-13T09:13:05;48.91;38.32;61.96;;
4048;Laerm;2038;51.728;6.674;2023-02-13T09:15:32;44.21;37.70;57.08;;
4048;Laerm;2038;51.728;6.674;2023-02-13T09:17:59;46.69;37.88;57.77;;
4048;Laerm;2038;51.728;6.674;2023-02-13T09:20:25;47.85;38.37;58.06;;
4048;Laerm;2038;51.728;6.674;2023-02-13T09:22:53;43.04;38.21;54.24;;
4048;Laerm;2038;51.728;6.674;2023-02-13T09:25:20;46.12;38.05;57.58;;
4048;Laerm;2038;51.728;6.674;2023-02-13T09:27:46;45.34;38.21;56.09;;
4048;Laerm;2038;51.728;6.674;2023-02-13T09:30:13;45.41;37.52;58.30;;
4048;Laerm;2038;51.728;6.674;2023-02-13T09:32:52;45.64;37.32;57.85;;
4048;Laerm;2038;51.728;6.674;2023-02-13T09:35:19;47.36;37.70;58.94;;
4048;Laerm;2038;51.728;6.674;2023-02-13T09:37:47;47.27;38.05;58.57;;
4048;Laerm;2038;51.728;6.674;2023-02-13T09:40:38;47.36;38.05;59.87;;
4048;Laerm;2038;51.728;6.674;2023-02-13T09:43:29;48.94;38.52;60.68;;
4048;Laerm;2038;51.728;6.674;2023-02-13T09:46:01;45.59;37.12;59.67;;
4048;Laerm;2038;51.728;6.674;2023-02-13T09:48:36;46.53;37.52;59.54;;
4048;Laerm;2038;51.728;6.674;2023-02-13T09:51:04;45.97;37.12;61.85;;
4048;Laerm;2038;51.728;6.674;2023-02-13T09:53:31;46.56;37.88;62.64;;
4048;Laerm;2038;51.728;6.674;2023-02-13T09:57:02;50.13;38.05;65.76;;
4048;Laerm;2038;51.728;6.674;2023-02-13T10:02:52;48.89;37.52;60.24;;
4048;Laerm;2038;51.728;6.674;2023-02-13T10:05:47;46.76;36.77;60.91;;
4048;Laerm;2038;51.728;6.674;2023-02-13T10:08:45;43.49;36.69;57.65;;
4048;Laerm;2038;51.728;6.674;2023-02-13T10:11:40;49.04;37.12;66.26;;
4048;Laerm;2038;51.728;6.674;2023-02-13T10:14:16;45.85;37.32;58.14;;
4048;Laerm;2038;51.728;6.674;2023-02-13T10:17:00;46.03;36.91;55.49;;
4048;Laerm;2038;51.728;6.674;2023-02-13T10:19:49;46.32;37.32;59.92;;
4048;Laerm;2038;51.728;6.674;2023-02-13T10:22:33;45.82;36.69;59.76;;
4048;Laerm;2038;51.728;6.674;2023-02-13T10:25:20;46.94;37.32;64.14;;
4048;Laerm;2038;51.728;6.674;2023-02-13T10:28:11;53.28;37.12;72.81;;
4048;Laerm;2038;51.728;6.674;2023-02-13T10:30:52;49.35;37.12;61.53;;
4048;Laerm;2038;51.728;6.674;2023-02-13T10:33:30;47.25;37.70;57.78;;
4048;Laerm;2038;51.728;6.674;2023-02-13T10:38:33;45.63;36.45;58.82;;
4048;Laerm;2038;51.728;6.674;2023-02-13T10:41:24;44.99;37.12;59.17;;
4048;Laerm;2038;51.728;6.674;2023-02-13T10:55:59;51.30;36.91;71.12;;
4048;Laerm;2038;51.728;6.674;2023-02-13T10:58:53;48.50;36.69;66.12;;
4048;Laerm;2038;51.728;6.674;2023-02-13T11:01:38;46.01;36.20;58.09;;
4048;Laerm;2038;51.728;6.674;2023-02-13T11:04:13;44.22;36.45;56.30;;
4048;Laerm;2038;51.728;6.674;2023-02-13T11:07:17;48.62;36.69;65.87;;
4048;Laerm;2038;51.728;6.674;2023-02-13T11:09:48;45.15;36.69;55.83;;
4048;Laerm;2038;51.728;6.674;2023-02-13T11:12:29;47.93;37.70;60.83;;
4048;Laerm;2038;51.728;6.674;2023-02-13T11:14:58;57.25;37.88;78.85;;
4048;Laerm;2038;51.728;6.674;2023-02-13T11:17:29;50.23;37.32;65.03;;
4048;Laerm;2038;51.728;6.674;2023-02-13T11:20:00;47.05;37.88;58.25;;
4048;Laerm;2038;51.728;6.674;2023-02-13T11:22:48;47.57;37.70;61.63;;
4048;Laerm;2038;51.728;6.674;2023-02-13T11:25:19;46.54;37.70;59.95;;
4048;Laerm;2038;51.728;6.674;2023-02-13T11:27:48;45.05;36.91;56.18;;
4048;Laerm;2038;51.728;6.674;2023-02-13T11:30:32;46.54;36.91;62.16;;
4048;Laerm;2038;51.728;6.674;2023-02-13T11:33:03;48.54;37.12;62.92;;
4048;Laerm;2038;51.728;6.674;2023-02-13T11:35:34;49.88;36.20;68.92;;
4048;Laerm;2038;51.728;6.674;2023-02-13T11:43:45;45.18;36.69;60.31;;
4048;Laerm;2038;51.728;6.674;2023-02-13T11:46:24;43.69;36.45;56.85;;
4048;Laerm;2038;51.728;6.674;2023-02-13T11:49:05;41.56;36.45;54.09;;
4048;Laerm;2038;51.728;6.674;2023-02-13T11:51:44;44.13;36.20;57.60;;
4048;Laerm;2038;51.728;6.674;2023-02-13T11:54:34;49.65;36.69;66.02;;
4048;Laerm;2038;51.728;6.674;2023-02-13T11:57:22;50.95;36.69;65.24;;
4048;Laerm;2038;51.728;6.674;2023-02-13T11:59:51;48.94;37.12;61.53;;
4048;Laerm;2038;51.728;6.674;2023-02-13T12:02:25;46.65;36.45;62.91;;
4048;Laerm;2038;51.728;6.674;2023-02-13T12:07:40;46.84;35.66;61.36;;
4048;Laerm;2038;51.728;6.674;2023-02-13T12:10:27;50.93;36.45;66.76;;
4048;Laerm;2038;51.728;6.674;2023-02-13T12:12:58;46.94;36.69;59.42;;
4048;Laerm;2038;51.728;6.674;2023-02-13T12:15:31;49.37;37.12;63.99;;
4048;Laerm;2038;51.728;6.674;2023-02-13T12:24:11;46.50;37.32;57.88;;
4048;Laerm;2038;51.728;6.674;2023-02-13T12:26:52;48.44;37.32;64.38;;
4048;Laerm;2038;51.728;6.674;2023-02-13T12:30:29;47.04;36.45;65.63;;
4048;Laerm;2038;51.728;6.674;2023-02-13T12:36:15;46.07;36.45;57.66;;
4048;Laerm;2038;51.728;6.674;2023-02-13T12:39:17;47.90;35.36;62.32;;
4048;Laerm;2038;51.728;6.674;2023-02-13T12:42:28;49.65;37.12;65.55;;
4048;Laerm;2038;51.728;6.674;2023-02-13T12:48:03;47.51;36.91;58.05;;
4048;Laerm;2038;51.728;6.674;2023-02-13T12:51:04;43.70;36.20;58.74;;
4048;Laerm;2038;51.728;6.674;2023-02-13T12:54:04;48.04;36.45;67.45;;
4048;Laerm;2038;51.728;6.674;2023-02-13T12:56:53;47.71;36.20;61.04;;
4048;Laerm;2038;51.728;6.674;2023-02-13T13:14:35;50.10;37.12;66.04;;
4048;Laerm;2038;51.728;6.674;2023-02-13T13:17:25;49.29;37.52;65.11;;
4048;Laerm;2038;51.728;6.674;2023-02-13T13:23:18;49.47;37.12;67.02;;
4048;Laerm;2038;51.728;6.674;2023-02-13T13:28:41;46.39;36.20;58.18;;
4048;Laerm;2038;51.728;6.674;2023-02-13T13:31:10;49.36;36.20;60.37;;
4048;Laerm;2038;51.728;6.674;2023-02-13T13:33:44;47.20;35.66;61.44;;
4048;Laerm;2038;51.728;6.674;2023-02-13T13:37:03;50.80;38.05;66.27;;
4048;Laerm;2038;51.728;6.674;2023-02-13T13:45:13;46.69;36.20;60.09;;
4048;Laerm;2038;51.728;6.674;2023-02-13T13:48:22;48.58;38.37;61.20;;
4048;Laerm;2038;51.728;6.674;2023-02-13T13:50:52;48.33;37.88;64.25;;
4048;Laerm;2038;51.728;6.674;2023-02-13T13:53:20;50.50;37.32;62.90;;
4048;Laerm;2038;51.728;6.674;2023-02-13T13:58:45;50.83;38.37;62.15;;
4048;Laerm;2038;51.728;6.674;2023-02-13T14:01:27;45.53;35.94;60.29;;
4048;Laerm;2038;51.728;6.674;2023-02-13T14:04:01;52.47;38.52;67.83;;
4048;Laerm;2038;51.728;6.674;2023-02-13T14:09:41;51.11;38.05;64.29;;
4048;Laerm;2038;51.728;6.674;2023-02-13T14:12:48;50.93;37.32;63.80;;
4048;Laerm;2038;51.728;6.674;2023-02-13T14:23:45;53.23;36.91;71.20;;
4048;Laerm;2038;51.728;6.674;2023-02-13T14:31:31;50.66;37.32;62.49;;
4048;Laerm;2038;51.728;6.674;2023-02-13T14:36:42;46.00;35.94;56.98;;
4048;Laerm;2038;51.728;6.674;2023-02-13T14:39:31;49.47;37.32;62.48;;
4048;Laerm;2038;51.728;6.674;2023-02-13T14:42:03;51.26;38.05;65.66;;
4048;Laerm;2038;51.728;6.674;2023-02-13T14:44:55;48.71;37.52;59.89;;
4048;Laerm;2038;51.728;6.674;2023-02-13T14:47:44;48.69;36.45;61.35;;
4048;Laerm;2038;51.728;6.674;2023-02-13T14:50:27;50.28;37.12;63.37;;
4048;Laerm;2038;51.728;6.674;2023-02-13T14:52:57;50.27;38.81;62.00;;
4048;Laerm;2038;51.728;6.674;2023-02-13T14:55:41;47.03;37.32;56.10;;
4048;Laerm;2038;51.728;6.674;2023-02-13T14:58:25;53.59;37.52;69.29;;
4048;Laerm;2038;51.728;6.674;2023-02-13T15:03:50;49.01;38.05;61.12;;
4048;Laerm;2038;51.728;6.674;2023-02-13T15:06:41;49.30;37.32;59.16;;
4048;Laerm;2038;51.728;6.674;2023-02-13T15:09:31;50.60;37.88;68.46;;
4048;Laerm;2038;51.728;6.674;2023-02-13T15:11:58;49.10;37.32;63.72;;
4048;Laerm;2038;51.728;6.674;2023-02-13T15:14:33;50.52;37.32;62.85;;
4048;Laerm;2038;51.728;6.674;2023-02-13T15:17:19;50.74;37.70;68.54;;
4048;Laerm;2038;51.728;6.674;2023-02-13T15:22:45;50.48;37.12;63.24;;
4048;Laerm;2038;51.728;6.674;2023-02-13T15:25:31;49.69;37.70;62.34;;
4048;Laerm;2038;51.728;6.674;2023-02-13T15:28:00;55.12;38.52;85.69;;
4048;Laerm;2038;51.728;6.674;2023-02-13T15:30:31;49.96;37.32;59.66;;
4048;Laerm;2038;51.728;6.674;2023-02-13T15:33:15;49.65;37.70;60.89;;
4048;Laerm;2038;51.728;6.674;2023-02-13T15:35:42;51.25;38.37;62.58;;
4048;Laerm;2038;51.728;6.674;2023-02-13T15:38:33;51.57;37.88;64.61;;
4048;Laerm;2038;51.728;6.674;2023-02-13T15:41:17;52.18;38.81;64.86;;
4048;Laerm;2038;51.728;6.674;2023-02-13T15:43:46;51.62;37.12;66.08;;
4048;Laerm;2038;51.728;6.674;2023-02-13T15:46:23;50.54;38.37;61.34;;
4048;Laerm;2038;51.728;6.674;2023-02-13T15:48:53;51.12;38.95;61.71;;
4048;Laerm;2038;51.728;6.674;2023-02-13T15:51:26;50.22;35.36;60.12;;
4048;Laerm;2038;51.728;6.674;2023-02-13T15:54:02;49.57;38.52;59.99;;
4048;Laerm;2038;51.728;6.674;2023-02-13T15:56:30;51.94;37.32;65.22;;
4048;Laerm;2038;51.728;6.674;2023-02-13T15:58:59;47.58;37.52;63.30;;
4048;Laerm;2038;51.728;6.674;2023-02-13T16:01:27;50.78;39.34;60.00;;
4048;Laerm;2038;51.728;6.674;2023-02-13T16:04:05;49.29;37.88;61.00;;
4048;Laerm;2038;51.728;6.674;2023-02-13T16:06:33;52.76;38.95;65.22;;
4048;Laerm;2038;51.728;6.674;2023-02-13T16:09:01;49.97;37.12;61.61;;
4048;Laerm;2038;51.728;6.674;2023-02-13T16:11:37;51.66;36.91;66.41;;
4048;Laerm;2038;51.728;6.674;2023-02-13T16:14:26;50.65;37.52;62.44;;
4048;Laerm;2038;51.728;6.674;2023-02-13T16:19:47;51.71;40.03;62.47;;
4048;Laerm;2038;51.728;6.674;2023-02-13T16:27:46;48.67;38.21;59.57;;
4048;Laerm;2038;51.728;6.674;2023-02-13T16:30:38;49.87;38.74;62.15;;
4048;Laerm;2038;51.728;6.674;2023-02-13T16:35:53;53.51;39.70;66.12;;
4048;Laerm;2038;51.728;6.674;2023-02-13T16:38:46;49.76;37.52;63.70;;
4048;Laerm;2038;51.728;6.674;2023-02-13T16:43:54;52.71;39.46;66.24;;
4048;Laerm;2038;51.728;6.674;2023-02-13T16:46:32;50.78;38.81;64.29;;
4048;Laerm;2038;51.728;6.674;2023-02-13T16:51:47;51.04;39.34;60.12;;
4048;Laerm;2038;51.728;6.674;2023-02-13T16:57:19;45.44;36.91;60.02;;
4048;Laerm;2038;51.728;6.674;2023-02-13T16:59:54;47.17;37.32;59.90;;
4048;Laerm;2038;51.728;6.674;2023-02-13T17:02:25;45.24;37.70;56.01;;
4048;Laerm;2038;51.728;6.674;2023-02-13T17:07:46;47.16;37.70;57.44;;
4048;Laerm;2038;51.728;6.674;2023-02-13T17:10:31;47.42;37.70;58.36;;
4048;Laerm;2038;51.728;6.674;2023-02-13T17:15:34;45.12;37.52;56.59;;
4048;Laerm;2038;51.728;6.674;2023-02-13T17:18:00;46.40;37.88;60.16;;
4048;Laerm;2038;51.728;6.674;2023-02-13T17:20:31;45.87;36.69;56.05;;
4048;Laerm;2038;51.728;6.674;2023-02-13T17:23:01;46.31;37.52;57.73;;